Terminal Aerodrome Forecast
Issued by NWS

Home | Current Version | Previous Version | Text Only | Print | Product List | Glossary On
Versions: 1 2 3 4 5 6 7 8 9 10 11 12 13 14 15 16 17 18 19
868
FTUS43 KMQT 270530
TAFSAW
TAF
KSAW 270530Z 2706/2806 32003KT P6SM SCT200
     FM271300 36005KT P6SM SCT070
     FM271500 01006KT P6SM VCSH BKN035
     FM271900 02006KT P6SM BKN050
     FM280400 00000KT P6SM SCT140=

USA.gov is the U.S. government's official web portal to all federal, state and local government web resources and services.